sensor_id;sensor_type;location;lat;lon;timestamp;P1;durP1;ratioP1;P2;durP2;ratioP2
13607;SDS011;6875;50.852;5.672;2023-02-08T00:00:37;20.83;;;12.47;;
13607;SDS011;6875;50.852;5.672;2023-02-08T00:03:04;19.40;;;11.43;;
13607;SDS011;6875;50.852;5.672;2023-02-08T00:05:30;18.77;;;12.47;;
13607;SDS011;6875;50.852;5.672;2023-02-08T00:07:58;18.43;;;11.53;;
13607;SDS011;6875;50.852;5.672;2023-02-08T00:10:25;15.13;;;11.07;;
13607;SDS011;6875;50.852;5.672;2023-02-08T00:12:51;19.30;;;11.50;;
13607;SDS011;6875;50.852;5.672;2023-02-08T00:15:18;19.37;;;11.67;;
13607;SDS011;6875;50.852;5.672;2023-02-08T00:17:45;18.37;;;11.40;;
13607;SDS011;6875;50.852;5.672;2023-02-08T00:20:11;15.70;;;10.73;;
13607;SDS011;6875;50.852;5.672;2023-02-08T00:22:39;18.63;;;11.80;;
13607;SDS011;6875;50.852;5.672;2023-02-08T00:25:07;15.57;;;10.67;;
13607;SDS011;6875;50.852;5.672;2023-02-08T00:27:34;16.90;;;11.27;;
13607;SDS011;6875;50.852;5.672;2023-02-08T00:30:01;16.67;;;11.03;;
13607;SDS011;6875;50.852;5.672;2023-02-08T00:32:27;18.00;;;10.93;;
13607;SDS011;6875;50.852;5.672;2023-02-08T00:34:54;17.23;;;11.30;;
13607;SDS011;6875;50.852;5.672;2023-02-08T00:37:20;18.80;;;11.13;;
13607;SDS011;6875;50.852;5.672;2023-02-08T00:39:47;16.67;;;10.97;;
13607;SDS011;6875;50.852;5.672;2023-02-08T00:42:17;15.70;;;10.83;;
13607;SDS011;6875;50.852;5.672;2023-02-08T00:44:44;17.90;;;10.60;;
13607;SDS011;6875;50.852;5.672;2023-02-08T00:47:10;19.20;;;11.63;;
13607;SDS011;6875;50.852;5.672;2023-02-08T00:49:37;17.07;;;11.03;;
13607;SDS011;6875;50.852;5.672;2023-02-08T00:52:03;17.80;;;10.83;;
13607;SDS011;6875;50.852;5.672;2023-02-08T00:54:30;18.13;;;11.17;;
13607;SDS011;6875;50.852;5.672;2023-02-08T00:56:56;18.60;;;12.23;;
13607;SDS011;6875;50.852;5.672;2023-02-08T00:59:24;17.90;;;11.77;;
13607;SDS011;6875;50.852;5.672;2023-02-08T01:01:51;19.73;;;11.87;;
13607;SDS011;6875;50.852;5.672;2023-02-08T01:04:18;16.20;;;10.83;;
13607;SDS011;6875;50.852;5.672;2023-02-08T01:06:44;16.80;;;11.67;;
13607;SDS011;6875;50.852;5.672;2023-02-08T01:09:11;21.40;;;12.50;;
13607;SDS011;6875;50.852;5.672;2023-02-08T01:11:37;19.30;;;13.07;;
13607;SDS011;6875;50.852;5.672;2023-02-08T01:14:04;18.53;;;12.00;;
13607;SDS011;6875;50.852;5.672;2023-02-08T01:16:32;20.57;;;12.67;;
13607;SDS011;6875;50.852;5.672;2023-02-08T01:18:59;17.97;;;12.23;;
13607;SDS011;6875;50.852;5.672;2023-02-08T01:21:28;21.13;;;12.70;;
13607;SDS011;6875;50.852;5.672;2023-02-08T01:23:56;21.60;;;11.67;;
13607;SDS011;6875;50.852;5.672;2023-02-08T01:26:23;17.33;;;11.83;;
13607;SDS011;6875;50.852;5.672;2023-02-08T01:28:50;18.60;;;12.30;;
13607;SDS011;6875;50.852;5.672;2023-02-08T01:31:19;19.80;;;11.97;;
13607;SDS011;6875;50.852;5.672;2023-02-08T01:33:48;19.93;;;12.17;;
13607;SDS011;6875;50.852;5.672;2023-02-08T01:36:14;16.60;;;12.03;;
13607;SDS011;6875;50.852;5.672;2023-02-08T01:38:42;20.13;;;12.40;;
13607;SDS011;6875;50.852;5.672;2023-02-08T01:41:11;19.13;;;11.33;;
13607;SDS011;6875;50.852;5.672;2023-02-08T01:43:58;17.33;;;11.20;;
13607;SDS011;6875;50.852;5.672;2023-02-08T01:46:29;18.03;;;11.63;;
13607;SDS011;6875;50.852;5.672;2023-02-08T01:48:59;18.03;;;12.23;;
13607;SDS011;6875;50.852;5.672;2023-02-08T01:51:29;16.83;;;11.00;;
13607;SDS011;6875;50.852;5.672;2023-02-08T01:53:58;17.20;;;12.00;;
13607;SDS011;6875;50.852;5.672;2023-02-08T01:56:26;17.47;;;10.93;;
13607;SDS011;6875;50.852;5.672;2023-02-08T01:58:56;18.10;;;11.90;;
13607;SDS011;6875;50.852;5.672;2023-02-08T02:01:25;17.73;;;11.23;;
13607;SDS011;6875;50.852;5.672;2023-02-08T02:03:52;18.13;;;10.73;;
13607;SDS011;6875;50.852;5.672;2023-02-08T02:06:22;16.30;;;11.27;;
13607;SDS011;6875;50.852;5.672;2023-02-08T02:08:52;17.30;;;11.03;;
13607;SDS011;6875;50.852;5.672;2023-02-08T02:11:23;21.97;;;11.87;;
13607;SDS011;6875;50.852;5.672;2023-02-08T02:13:49;20.43;;;12.87;;
13607;SDS011;6875;50.852;5.672;2023-02-08T02:16:16;18.43;;;12.00;;
13607;SDS011;6875;50.852;5.672;2023-02-08T02:18:43;17.37;;;11.40;;
13607;SDS011;6875;50.852;5.672;2023-02-08T02:21:17;17.20;;;11.90;;
13607;SDS011;6875;50.852;5.672;2023-02-08T02:24:14;15.23;;;10.73;;
13607;SDS011;6875;50.852;5.672;2023-02-08T02:30:01;15.70;;;10.90;;
13607;SDS011;6875;50.852;5.672;2023-02-08T02:32:51;18.07;;;11.60;;
13607;SDS011;6875;50.852;5.672;2023-02-08T02:35:24;20.33;;;11.67;;
13607;SDS011;6875;50.852;5.672;2023-02-08T02:37:56;17.90;;;11.50;;
13607;SDS011;6875;50.852;5.672;2023-02-08T02:40:31;18.60;;;12.13;;
13607;SDS011;6875;50.852;5.672;2023-02-08T02:43:04;16.63;;;11.03;;
13607;SDS011;6875;50.852;5.672;2023-02-08T02:45:54;22.17;;;12.33;;
13607;SDS011;6875;50.852;5.672;2023-02-08T02:48:24;16.47;;;11.70;;
13607;SDS011;6875;50.852;5.672;2023-02-08T02:50:55;18.40;;;11.93;;
13607;SDS011;6875;50.852;5.672;2023-02-08T02:53:27;17.07;;;11.43;;
13607;SDS011;6875;50.852;5.672;2023-02-08T02:55:57;18.57;;;11.30;;
13607;SDS011;6875;50.852;5.672;2023-02-08T02:58:25;16.17;;;11.07;;
13607;SDS011;6875;50.852;5.672;2023-02-08T03:00:53;20.80;;;12.23;;
13607;SDS011;6875;50.852;5.672;2023-02-08T03:03:21;18.10;;;11.63;;
13607;SDS011;6875;50.852;5.672;2023-02-08T03:05:50;17.00;;;11.37;;
13607;SDS011;6875;50.852;5.672;2023-02-08T03:08:22;18.43;;;12.30;;
13607;SDS011;6875;50.852;5.672;2023-02-08T03:10:59;18.00;;;12.20;;
13607;SDS011;6875;50.852;5.672;2023-02-08T03:13:34;18.67;;;12.40;;
13607;SDS011;6875;50.852;5.672;2023-02-08T03:16:12;19.63;;;11.90;;
13607;SDS011;6875;50.852;5.672;2023-02-08T03:18:45;17.40;;;10.70;;
13607;SDS011;6875;50.852;5.672;2023-02-08T03:21:17;14.77;;;10.80;;
13607;SDS011;6875;50.852;5.672;2023-02-08T03:23:48;16.40;;;11.13;;
13607;SDS011;6875;50.852;5.672;2023-02-08T03:26:21;22.40;;;12.27;;
13607;SDS011;6875;50.852;5.672;2023-02-08T03:28:55;22.57;;;12.83;;
13607;SDS011;6875;50.852;5.672;2023-02-08T03:31:27;23.80;;;13.50;;
13607;SDS011;6875;50.852;5.672;2023-02-08T03:33:59;26.67;;;13.63;;
13607;SDS011;6875;50.852;5.672;2023-02-08T03:36:30;25.63;;;13.40;;
13607;SDS011;6875;50.852;5.672;2023-02-08T03:39:02;25.47;;;13.73;;
13607;SDS011;6875;50.852;5.672;2023-02-08T03:41:32;21.67;;;12.17;;
13607;SDS011;6875;50.852;5.672;2023-02-08T03:44:02;19.17;;;11.87;;
13607;SDS011;6875;50.852;5.672;2023-02-08T03:46:32;20.13;;;11.43;;
13607;SDS011;6875;50.852;5.672;2023-02-08T03:49:02;17.80;;;11.50;;
13607;SDS011;6875;50.852;5.672;2023-02-08T03:51:31;16.23;;;11.53;;
13607;SDS011;6875;50.852;5.672;2023-02-08T03:54:00;17.50;;;12.00;;
13607;SDS011;6875;50.852;5.672;2023-02-08T03:56:33;22.20;;;12.00;;
13607;SDS011;6875;50.852;5.672;2023-02-08T03:59:03;17.70;;;11.23;;
13607;SDS011;6875;50.852;5.672;2023-02-08T04:01:35;16.70;;;11.10;;
13607;SDS011;6875;50.852;5.672;2023-02-08T04:04:05;19.27;;;11.00;;
13607;SDS011;6875;50.852;5.672;2023-02-08T04:06:32;21.80;;;12.30;;
13607;SDS011;6875;50.852;5.672;2023-02-08T04:08:58;18.42;;;11.95;;
13607;SDS011;6875;50.852;5.672;2023-02-08T04:11:25;22.30;;;12.15;;
13607;SDS011;6875;50.852;5.672;2023-02-08T04:13:51;19.57;;;12.40;;
13607;SDS011;6875;50.852;5.672;2023-02-08T04:16:18;19.27;;;11.63;;
13607;SDS011;6875;50.852;5.672;2023-02-08T04:18:44;16.77;;;10.90;;
13607;SDS011;6875;50.852;5.672;2023-02-08T04:21:12;23.87;;;12.70;;
13607;SDS011;6875;50.852;5.672;2023-02-08T04:23:39;21.00;;;12.07;;
13607;SDS011;6875;50.852;5.672;2023-02-08T04:26:05;18.80;;;11.70;;
13607;SDS011;6875;50.852;5.672;2023-02-08T04:28:32;18.20;;;10.67;;
13607;SDS011;6875;50.852;5.672;2023-02-08T04:30:59;16.27;;;10.97;;
13607;SDS011;6875;50.852;5.672;2023-02-08T04:33:26;16.03;;;10.77;;
13607;SDS011;6875;50.852;5.672;2023-02-08T04:35:52;15.60;;;10.03;;
13607;SDS011;6875;50.852;5.672;2023-02-08T04:38:20;17.38;;;10.70;;
13607;SDS011;6875;50.852;5.672;2023-02-08T04:40:47;15.17;;;10.33;;
13607;SDS011;6875;50.852;5.672;2023-02-08T04:43:13;19.60;;;11.83;;
13607;SDS011;6875;50.852;5.672;2023-02-08T04:45:40;17.60;;;11.00;;
13607;SDS011;6875;50.852;5.672;2023-02-08T04:48:06;15.67;;;10.47;;
13607;SDS011;6875;50.852;5.672;2023-02-08T04:50:33;14.60;;;11.43;;
13607;SDS011;6875;50.852;5.672;2023-02-08T04:53:00;16.40;;;11.27;;
13607;SDS011;6875;50.852;5.672;2023-02-08T04:55:28;18.23;;;10.97;;
13607;SDS011;6875;50.852;5.672;2023-02-08T04:57:54;17.97;;;11.03;;
13607;SDS011;6875;50.852;5.672;2023-02-08T05:00:21;17.57;;;10.47;;
13607;SDS011;6875;50.852;5.672;2023-02-08T05:02:50;17.77;;;11.47;;
13607;SDS011;6875;50.852;5.672;2023-02-08T05:05:17;17.40;;;10.90;;
13607;SDS011;6875;50.852;5.672;2023-02-08T05:07:44;17.63;;;11.13;;
13607;SDS011;6875;50.852;5.672;2023-02-08T05:10:10;18.30;;;11.07;;
13607;SDS011;6875;50.852;5.672;2023-02-08T05:12:38;19.97;;;11.67;;
13607;SDS011;6875;50.852;5.672;2023-02-08T05:15:05;17.60;;;10.90;;
13607;SDS011;6875;50.852;5.672;2023-02-08T05:17:32;17.35;;;11.43;;
13607;SDS011;6875;50.852;5.672;2023-02-08T05:19:58;17.30;;;11.10;;
13607;SDS011;6875;50.852;5.672;2023-02-08T05:22:25;16.60;;;11.07;;
13607;SDS011;6875;50.852;5.672;2023-02-08T05:24:51;15.93;;;10.50;;
13607;SDS011;6875;50.852;5.672;2023-02-08T05:27:18;18.43;;;10.57;;
13607;SDS011;6875;50.852;5.672;2023-02-08T05:29:46;15.93;;;10.67;;
13607;SDS011;6875;50.852;5.672;2023-02-08T05:32:12;18.77;;;11.87;;
13607;SDS011;6875;50.852;5.672;2023-02-08T05:34:39;17.97;;;11.10;;
13607;SDS011;6875;50.852;5.672;2023-02-08T05:37:05;17.58;;;10.43;;
13607;SDS011;6875;50.852;5.672;2023-02-08T05:39:32;17.43;;;11.53;;
13607;SDS011;6875;50.852;5.672;2023-02-08T05:41:59;18.43;;;11.07;;
13607;SDS011;6875;50.852;5.672;2023-02-08T05:44:25;16.87;;;10.07;;
13607;SDS011;6875;50.852;5.672;2023-02-08T05:46:53;18.73;;;10.63;;
13607;SDS011;6875;50.852;5.672;2023-02-08T05:49:19;19.00;;;11.20;;
13607;SDS011;6875;50.852;5.672;2023-02-08T05:51:46;16.73;;;10.60;;
13607;SDS011;6875;50.852;5.672;2023-02-08T05:54:14;16.43;;;10.40;;
13607;SDS011;6875;50.852;5.672;2023-02-08T05:56:41;15.57;;;10.50;;
13607;SDS011;6875;50.852;5.672;2023-02-08T05:59:07;15.73;;;10.00;;
13607;SDS011;6875;50.852;5.672;2023-02-08T06:01:34;15.43;;;10.50;;
13607;SDS011;6875;50.852;5.672;2023-02-08T06:04:02;18.73;;;10.13;;
13607;SDS011;6875;50.852;5.672;2023-02-08T06:06:29;18.40;;;10.63;;
13607;SDS011;6875;50.852;5.672;2023-02-08T06:08:55;16.80;;;10.23;;
13607;SDS011;6875;50.852;5.672;2023-02-08T06:11:22;14.77;;;9.47;;
13607;SDS011;6875;50.852;5.672;2023-02-08T06:13:48;15.17;;;9.77;;
13607;SDS011;6875;50.852;5.672;2023-02-08T06:16:15;15.77;;;10.67;;
13607;SDS011;6875;50.852;5.672;2023-02-08T06:18:41;17.30;;;9.97;;
13607;SDS011;6875;50.852;5.672;2023-02-08T06:21:09;14.97;;;10.57;;
13607;SDS011;6875;50.852;5.672;2023-02-08T06:23:37;15.63;;;10.47;;
13607;SDS011;6875;50.852;5.672;2023-02-08T06:26:04;15.73;;;10.07;;
13607;SDS011;6875;50.852;5.672;2023-02-08T06:28:30;22.83;;;10.60;;
13607;SDS011;6875;50.852;5.672;2023-02-08T06:30:57;16.33;;;10.90;;
13607;SDS011;6875;50.852;5.672;2023-02-08T06:33:24;16.47;;;10.23;;
13607;SDS011;6875;50.852;5.672;2023-02-08T06:35:51;17.63;;;10.43;;
13607;SDS011;6875;50.852;5.672;2023-02-08T06:38:19;19.33;;;12.43;;
13607;SDS011;6875;50.852;5.672;2023-02-08T06:40:46;20.93;;;11.30;;
13607;SDS011;6875;50.852;5.672;2023-02-08T06:43:13;18.23;;;11.27;;
13607;SDS011;6875;50.852;5.672;2023-02-08T06:45:40;20.27;;;11.43;;
13607;SDS011;6875;50.852;5.672;2023-02-08T06:48:07;17.03;;;10.77;;
13607;SDS011;6875;50.852;5.672;2023-02-08T06:50:34;17.33;;;11.37;;
13607;SDS011;6875;50.852;5.672;2023-02-08T06:53:01;19.37;;;10.83;;
13607;SDS011;6875;50.852;5.672;2023-02-08T06:55:29;18.03;;;11.23;;
13607;SDS011;6875;50.852;5.672;2023-02-08T06:57:56;19.20;;;11.70;;
13607;SDS011;6875;50.852;5.672;2023-02-08T07:00:23;17.93;;;11.17;;
13607;SDS011;6875;50.852;5.672;2023-02-08T07:02:49;18.40;;;10.60;;
13607;SDS011;6875;50.852;5.672;2023-02-08T07:05:16;20.42;;;12.23;;
13607;SDS011;6875;50.852;5.672;2023-02-08T07:07:43;16.57;;;10.10;;
13607;SDS011;6875;50.852;5.672;2023-02-08T07:10:12;14.63;;;10.00;;
13607;SDS011;6875;50.852;5.672;2023-02-08T07:12:40;16.13;;;10.53;;
13607;SDS011;6875;50.852;5.672;2023-02-08T07:15:07;17.97;;;10.60;;
13607;SDS011;6875;50.852;5.672;2023-02-08T07:17:37;18.87;;;11.23;;
13607;SDS011;6875;50.852;5.672;2023-02-08T07:20:04;18.07;;;10.63;;
13607;SDS011;6875;50.852;5.672;2023-02-08T07:22:31;16.13;;;10.33;;
13607;SDS011;6875;50.852;5.672;2023-02-08T07:24:57;18.53;;;10.67;;
13607;SDS011;6875;50.852;5.672;2023-02-08T07:27:24;15.50;;;9.43;;
13607;SDS011;6875;50.852;5.672;2023-02-08T07:29:52;17.43;;;10.87;;
13607;SDS011;6875;50.852;5.672;2023-02-08T07:32:18;18.70;;;10.93;;
13607;SDS011;6875;50.852;5.672;2023-02-08T07:34:48;14.80;;;10.30;;
13607;SDS011;6875;50.852;5.672;2023-02-08T07:37:14;22.10;;;11.33;;
13607;SDS011;6875;50.852;5.672;2023-02-08T07:39:41;17.97;;;11.33;;
13607;SDS011;6875;50.852;5.672;2023-02-08T07:42:08;16.97;;;11.00;;
13607;SDS011;6875;50.852;5.672;2023-02-08T07:44:35;18.67;;;11.13;;
13607;SDS011;6875;50.852;5.672;2023-02-08T07:47:04;17.33;;;11.93;;
13607;SDS011;6875;50.852;5.672;2023-02-08T07:49:31;21.17;;;11.07;;
13607;SDS011;6875;50.852;5.672;2023-02-08T07:51:58;16.97;;;10.33;;
13607;SDS011;6875;50.852;5.672;2023-02-08T07:54:25;18.47;;;10.80;;
13607;SDS011;6875;50.852;5.672;2023-02-08T07:56:55;19.23;;;10.70;;
13607;SDS011;6875;50.852;5.672;2023-02-08T07:59:22;17.37;;;10.97;;
13607;SDS011;6875;50.852;5.672;2023-02-08T08:01:48;16.03;;;11.20;;
13607;SDS011;6875;50.852;5.672;2023-02-08T08:04:16;18.60;;;11.40;;
13607;SDS011;6875;50.852;5.672;2023-02-08T08:06:43;19.97;;;11.60;;
13607;SDS011;6875;50.852;5.672;2023-02-08T08:09:10;22.60;;;10.97;;
13607;SDS011;6875;50.852;5.672;2023-02-08T08:11:37;15.60;;;10.93;;
13607;SDS011;6875;50.852;5.672;2023-02-08T08:14:03;17.40;;;10.80;;
13607;SDS011;6875;50.852;5.672;2023-02-08T08:16:30;15.70;;;10.80;;
13607;SDS011;6875;50.852;5.672;2023-02-08T08:18:56;16.83;;;11.20;;
13607;SDS011;6875;50.852;5.672;2023-02-08T08:21:24;16.53;;;10.70;;
13607;SDS011;6875;50.852;5.672;2023-02-08T08:23:51;19.63;;;11.00;;
13607;SDS011;6875;50.852;5.672;2023-02-08T08:26:19;20.33;;;10.87;;
13607;SDS011;6875;50.852;5.672;2023-02-08T08:28:46;17.87;;;10.97;;
13607;SDS011;6875;50.852;5.672;2023-02-08T08:31:13;19.93;;;10.83;;
13607;SDS011;6875;50.852;5.672;2023-02-08T08:33:44;21.50;;;11.23;;
13607;SDS011;6875;50.852;5.672;2023-02-08T08:36:11;18.33;;;11.73;;
13607;SDS011;6875;50.852;5.672;2023-02-08T08:38:39;18.53;;;10.77;;
13607;SDS011;6875;50.852;5.672;2023-02-08T08:41:07;15.97;;;10.77;;
13607;SDS011;6875;50.852;5.672;2023-02-08T08:43:34;17.23;;;11.10;;
13607;SDS011;6875;50.852;5.672;2023-02-08T08:46:00;14.03;;;10.37;;
13607;SDS011;6875;50.852;5.672;2023-02-08T08:48:27;17.67;;;11.70;;
13607;SDS011;6875;50.852;5.672;2023-02-08T08:50:53;17.60;;;10.87;;
13607;SDS011;6875;50.852;5.672;2023-02-08T08:53:20;20.47;;;11.67;;
13607;SDS011;6875;50.852;5.672;2023-02-08T08:55:48;15.73;;;10.37;;
13607;SDS011;6875;50.852;5.672;2023-02-08T08:58:15;14.63;;;10.57;;
13607;SDS011;6875;50.852;5.672;2023-02-08T09:00:41;19.13;;;10.57;;
13607;SDS011;6875;50.852;5.672;2023-02-08T09:03:08;17.73;;;10.30;;
13607;SDS011;6875;50.852;5.672;2023-02-08T09:05:34;17.50;;;10.20;;
13607;SDS011;6875;50.852;5.672;2023-02-08T09:08:01;14.87;;;10.40;;
13607;SDS011;6875;50.852;5.672;2023-02-08T09:10:27;15.60;;;10.83;;
13607;SDS011;6875;50.852;5.672;2023-02-08T09:12:56;18.63;;;11.00;;
13607;SDS011;6875;50.852;5.672;2023-02-08T09:15:22;14.30;;;10.13;;
13607;SDS011;6875;50.852;5.672;2023-02-08T09:17:49;15.83;;;10.40;;
13607;SDS011;6875;50.852;5.672;2023-02-08T09:20:15;15.60;;;10.40;;
13607;SDS011;6875;50.852;5.672;2023-02-08T09:22:42;16.83;;;10.80;;
13607;SDS011;6875;50.852;5.672;2023-02-08T09:25:08;17.03;;;10.67;;
13607;SDS011;6875;50.852;5.672;2023-02-08T09:27:35;18.13;;;10.50;;
13607;SDS011;6875;50.852;5.672;2023-02-08T09:30:03;15.20;;;10.37;;
13607;SDS011;6875;50.852;5.672;2023-02-08T09:32:31;16.03;;;9.57;;
13607;SDS011;6875;50.852;5.672;2023-02-08T09:34:59;17.90;;;10.43;;
13607;SDS011;6875;50.852;5.672;2023-02-08T09:37:26;14.03;;;9.77;;
13607;SDS011;6875;50.852;5.672;2023-02-08T09:39:53;17.37;;;10.63;;
13607;SDS011;6875;50.852;5.672;2023-02-08T09:42:26;18.37;;;9.70;;
13607;SDS011;6875;50.852;5.672;2023-02-08T09:45:01;19.47;;;11.43;;
13607;SDS011;6875;50.852;5.672;2023-02-08T09:47:47;16.30;;;9.63;;
13607;SDS011;6875;50.852;5.672;2023-02-08T09:50:18;17.57;;;9.93;;
13607;SDS011;6875;50.852;5.672;2023-02-08T09:52:48;16.47;;;9.90;;
13607;SDS011;6875;50.852;5.672;2023-02-08T09:55:20;20.63;;;9.93;;
13607;SDS011;6875;50.852;5.672;2023-02-08T09:57:54;15.23;;;9.93;;
13607;SDS011;6875;50.852;5.672;2023-02-08T10:00:26;15.43;;;10.40;;
13607;SDS011;6875;50.852;5.672;2023-02-08T10:02:56;18.07;;;9.80;;
13607;SDS011;6875;50.852;5.672;2023-02-08T10:05:23;16.53;;;9.33;;
13607;SDS011;6875;50.852;5.672;2023-02-08T10:07:52;19.53;;;10.17;;
13607;SDS011;6875;50.852;5.672;2023-02-08T10:10:19;13.33;;;9.00;;
13607;SDS011;6875;50.852;5.672;2023-02-08T10:12:49;13.47;;;10.03;;
13607;SDS011;6875;50.852;5.672;2023-02-08T10:15:23;13.43;;;9.20;;
13607;SDS011;6875;50.852;5.672;2023-02-08T10:18:00;14.37;;;10.13;;
13607;SDS011;6875;50.852;5.672;2023-02-08T10:20:43;16.07;;;9.43;;
13607;SDS011;6875;50.852;5.672;2023-02-08T10:23:19;15.17;;;8.63;;
13607;SDS011;6875;50.852;5.672;2023-02-08T10:25:59;15.50;;;9.30;;
13607;SDS011;6875;50.852;5.672;2023-02-08T10:28:35;11.57;;;8.47;;
13607;SDS011;6875;50.852;5.672;2023-02-08T10:31:16;12.63;;;8.93;;
13607;SDS011;6875;50.852;5.672;2023-02-08T10:33:49;12.23;;;8.23;;
13607;SDS011;6875;50.852;5.672;2023-02-08T10:36:20;14.57;;;9.13;;
13607;SDS011;6875;50.852;5.672;2023-02-08T10:38:51;13.50;;;8.57;;
13607;SDS011;6875;50.852;5.672;2023-02-08T10:41:19;15.90;;;8.73;;
13607;SDS011;6875;50.852;5.672;2023-02-08T10:43:50;12.03;;;8.40;;
13607;SDS011;6875;50.852;5.672;2023-02-08T10:46:21;12.10;;;8.83;;
13607;SDS011;6875;50.852;5.672;2023-02-08T10:48:59;11.63;;;7.67;;
13607;SDS011;6875;50.852;5.672;2023-02-08T10:51:29;14.60;;;7.40;;
13607;SDS011;6875;50.852;5.672;2023-02-08T10:53:56;11.43;;;8.43;;
13607;SDS011;6875;50.852;5.672;2023-02-08T10:56:34;11.33;;;7.83;;
13607;SDS011;6875;50.852;5.672;2023-02-08T10:59:05;15.23;;;7.90;;
13607;SDS011;6875;50.852;5.672;2023-02-08T11:01:38;12.43;;;8.20;;
13607;SDS011;6875;50.852;5.672;2023-02-08T11:04:05;12.90;;;9.00;;
13607;SDS011;6875;50.852;5.672;2023-02-08T11:06:34;10.20;;;7.67;;
13607;SDS011;6875;50.852;5.672;2023-02-08T11:09:01;10.43;;;7.60;;
13607;SDS011;6875;50.852;5.672;2023-02-08T11:11:30;13.17;;;8.00;;
13607;SDS011;6875;50.852;5.672;2023-02-08T11:14:04;10.37;;;7.77;;
13607;SDS011;6875;50.852;5.672;2023-02-08T11:16:33;13.77;;;7.50;;
13607;SDS011;6875;50.852;5.672;2023-02-08T11:19:02;10.67;;;7.93;;
13607;SDS011;6875;50.852;5.672;2023-02-08T11:21:32;11.30;;;7.20;;
13607;SDS011;6875;50.852;5.672;2023-02-08T11:24:16;14.03;;;7.90;;
13607;SDS011;6875;50.852;5.672;2023-02-08T11:26:51;9.50;;;7.00;;
13607;SDS011;6875;50.852;5.672;2023-02-08T11:29:18;13.17;;;6.90;;
13607;SDS011;6875;50.852;5.672;2023-02-08T11:31:55;9.00;;;6.90;;
13607;SDS011;6875;50.852;5.672;2023-02-08T11:34:27;11.63;;;7.27;;
13607;SDS011;6875;50.852;5.672;2023-02-08T11:36:56;9.00;;;6.27;;
13607;SDS011;6875;50.852;5.672;2023-02-08T11:39:24;8.47;;;6.80;;
13607;SDS011;6875;50.852;5.672;2023-02-08T11:41:54;11.63;;;7.17;;
13607;SDS011;6875;50.852;5.672;2023-02-08T11:44:24;8.33;;;6.67;;
13607;SDS011;6875;50.852;5.672;2023-02-08T11:46:53;12.20;;;6.30;;
13607;SDS011;6875;50.852;5.672;2023-02-08T11:49:21;7.77;;;6.70;;
13607;SDS011;6875;50.852;5.672;2023-02-08T11:51:53;9.80;;;6.73;;
13607;SDS011;6875;50.852;5.672;2023-02-08T11:54:30;8.43;;;6.23;;
13607;SDS011;6875;50.852;5.672;2023-02-08T11:57:02;7.77;;;6.27;;
13607;SDS011;6875;50.852;5.672;2023-02-08T11:59:34;9.00;;;5.90;;
13607;SDS011;6875;50.852;5.672;2023-02-08T12:02:02;8.40;;;6.10;;
13607;SDS011;6875;50.852;5.672;2023-02-08T12:04:48;9.87;;;6.47;;
13607;SDS011;6875;50.852;5.672;2023-02-08T12:07:18;9.73;;;6.63;;
13607;SDS011;6875;50.852;5.672;2023-02-08T12:09:53;8.93;;;5.93;;
13607;SDS011;6875;50.852;5.672;2023-02-08T12:12:32;9.53;;;6.27;;
13607;SDS011;6875;50.852;5.672;2023-02-08T12:15:06;8.47;;;6.63;;
13607;SDS011;6875;50.852;5.672;2023-02-08T12:17:41;8.97;;;6.43;;
13607;SDS011;6875;50.852;5.672;2023-02-08T12:20:28;7.67;;;6.17;;
13607;SDS011;6875;50.852;5.672;2023-02-08T12:23:03;8.40;;;6.37;;
13607;SDS011;6875;50.852;5.672;2023-02-08T12:25:41;9.43;;;6.07;;
13607;SDS011;6875;50.852;5.672;2023-02-08T12:28:13;9.87;;;6.93;;
13607;SDS011;6875;50.852;5.672;2023-02-08T12:30:47;8.50;;;6.63;;
13607;SDS011;6875;50.852;5.672;2023-02-08T12:33:21;8.20;;;7.07;;
13607;SDS011;6875;50.852;5.672;2023-02-08T12:38:58;8.20;;;6.60;;
13607;SDS011;6875;50.852;5.672;2023-02-08T12:41:52;8.60;;;6.83;;
13607;SDS011;6875;50.852;5.672;2023-02-08T12:44:27;10.83;;;6.70;;
13607;SDS011;6875;50.852;5.672;2023-02-08T12:47:00;9.20;;;6.53;;
13607;SDS011;6875;50.852;5.672;2023-02-08T12:49:38;11.37;;;6.60;;
13607;SDS011;6875;50.852;5.672;2023-02-08T12:52:16;9.60;;;6.77;;
13607;SDS011;6875;50.852;5.672;2023-02-08T12:54:51;10.13;;;6.50;;
13607;SDS011;6875;50.852;5.672;2023-02-08T12:57:22;8.83;;;6.77;;
13607;SDS011;6875;50.852;5.672;2023-02-08T12:59:50;10.53;;;6.50;;
13607;SDS011;6875;50.852;5.672;2023-02-08T13:02:20;11.00;;;7.10;;
13607;SDS011;6875;50.852;5.672;2023-02-08T13:04:48;10.03;;;6.67;;
13607;SDS011;6875;50.852;5.672;2023-02-08T13:07:18;7.77;;;6.60;;
13607;SDS011;6875;50.852;5.672;2023-02-08T13:09:50;8.97;;;6.33;;
13607;SDS011;6875;50.852;5.672;2023-02-08T13:12:22;9.63;;;7.00;;
13607;SDS011;6875;50.852;5.672;2023-02-08T13:14:51;8.13;;;6.27;;
13607;SDS011;6875;50.852;5.672;2023-02-08T13:17:20;10.67;;;6.63;;
13607;SDS011;6875;50.852;5.672;2023-02-08T13:19:53;8.87;;;6.67;;
13607;SDS011;6875;50.852;5.672;2023-02-08T13:22:22;9.47;;;6.63;;
13607;SDS011;6875;50.852;5.672;2023-02-08T13:24:49;7.70;;;6.17;;
13607;SDS011;6875;50.852;5.672;2023-02-08T13:27:19;6.77;;;5.50;;
13607;SDS011;6875;50.852;5.672;2023-02-08T13:29:47;7.00;;;5.47;;
13607;SDS011;6875;50.852;5.672;2023-02-08T13:32:17;9.10;;;5.93;;
13607;SDS011;6875;50.852;5.672;2023-02-08T13:34:47;10.60;;;6.07;;
13607;SDS011;6875;50.852;5.672;2023-02-08T13:37:17;7.67;;;6.00;;
13607;SDS011;6875;50.852;5.672;2023-02-08T13:39:45;8.60;;;6.07;;
13607;SDS011;6875;50.852;5.672;2023-02-08T13:42:26;7.17;;;5.80;;
13607;SDS011;6875;50.852;5.672;2023-02-08T13:44:54;9.90;;;5.73;;
13607;SDS011;6875;50.852;5.672;2023-02-08T13:47:23;6.07;;;5.43;;
13607;SDS011;6875;50.852;5.672;2023-02-08T13:49:52;7.20;;;4.60;;
13607;SDS011;6875;50.852;5.672;2023-02-08T14:01:33;6.77;;;4.53;;
13607;SDS011;6875;50.852;5.672;2023-02-08T14:09:58;5.20;;;4.20;;
13607;SDS011;6875;50.852;5.672;2023-02-08T14:12:39;7.20;;;4.43;;
13607;SDS011;6875;50.852;5.672;2023-02-08T14:15:25;5.20;;;4.60;;
13607;SDS011;6875;50.852;5.672;2023-02-08T14:17:56;6.10;;;5.13;;
13607;SDS011;6875;50.852;5.672;2023-02-08T14:20:25;9.10;;;5.23;;
13607;SDS011;6875;50.852;5.672;2023-02-08T14:22:55;9.57;;;5.83;;
13607;SDS011;6875;50.852;5.672;2023-02-08T14:25:24;8.73;;;5.07;;
13607;SDS011;6875;50.852;5.672;2023-02-08T14:27:52;7.07;;;5.47;;
13607;SDS011;6875;50.852;5.672;2023-02-08T14:30:21;9.27;;;5.60;;
13607;SDS011;6875;50.852;5.672;2023-02-08T14:32:53;7.30;;;5.83;;
13607;SDS011;6875;50.852;5.672;2023-02-08T14:35:34;6.97;;;5.03;;
13607;SDS011;6875;50.852;5.672;2023-02-08T14:50:19;6.00;;;4.73;;
13607;SDS011;6875;50.852;5.672;2023-02-08T14:52:50;5.60;;;4.30;;
13607;SDS011;6875;50.852;5.672;2023-02-08T14:55:20;7.10;;;4.40;;
13607;SDS011;6875;50.852;5.672;2023-02-08T14:57:52;4.70;;;3.90;;
13607;SDS011;6875;50.852;5.672;2023-02-08T15:00:20;5.00;;;3.97;;
13607;SDS011;6875;50.852;5.672;2023-02-08T15:02:51;5.23;;;3.30;;
13607;SDS011;6875;50.852;5.672;2023-02-08T15:05:20;5.47;;;3.47;;
13607;SDS011;6875;50.852;5.672;2023-02-08T15:07:48;3.30;;;3.00;;
13607;SDS011;6875;50.852;5.672;2023-02-08T15:10:16;5.27;;;3.40;;
13607;SDS011;6875;50.852;5.672;2023-02-08T15:12:45;5.93;;;3.00;;
13607;SDS011;6875;50.852;5.672;2023-02-08T15:15:20;4.20;;;3.03;;
13607;SDS011;6875;50.852;5.672;2023-02-08T15:17:49;4.27;;;3.20;;
13607;SDS011;6875;50.852;5.672;2023-02-08T15:20:19;5.00;;;3.10;;
13607;SDS011;6875;50.852;5.672;2023-02-08T15:22:46;4.00;;;3.07;;
13607;SDS011;6875;50.852;5.672;2023-02-08T15:25:19;4.57;;;3.73;;
13607;SDS011;6875;50.852;5.672;2023-02-08T15:27:48;4.83;;;3.60;;